createdAt,value
2023-02-06T00:00:48.282Z,549.00
2023-02-06T00:01:48.245Z,549.00
2023-02-06T00:02:48.236Z,547.00
2023-02-06T00:03:48.187Z,547.00
2023-02-06T00:04:48.175Z,546.00
2023-02-06T00:05:48.236Z,544.00
2023-02-06T00:06:48.169Z,545.00
2023-02-06T00:07:48.123Z,548.00
2023-02-06T00:08:48.089Z,544.00
2023-02-06T00:09:48.092Z,545.00
2023-02-06T00:10:48.089Z,550.00
2023-02-06T00:11:48.055Z,547.00
2023-02-06T00:12:48.056Z,546.00
2023-02-06T00:13:48.026Z,550.00
2023-02-06T00:14:47.990Z,544.00
2023-02-06T00:15:48.001Z,546.00
2023-02-06T00:16:47.954Z,546.00
2023-02-06T00:17:48.048Z,544.00
2023-02-06T00:18:47.936Z,541.00
2023-02-06T00:19:47.908Z,541.00
2023-02-06T00:20:47.897Z,536.00
2023-02-06T00:21:47.868Z,544.00
2023-02-06T00:22:47.857Z,537.00
2023-02-06T00:23:47.853Z,541.00
2023-02-06T00:24:47.822Z,543.00
2023-02-06T00:25:47.845Z,542.00
2023-02-06T00:26:47.782Z,537.00
2023-02-06T00:27:47.796Z,542.00
2023-02-06T00:28:47.772Z,540.00
2023-02-06T00:29:47.755Z,541.00
2023-02-06T00:30:47.816Z,541.00
2023-02-06T00:31:47.753Z,540.00
2023-02-06T00:32:47.726Z,541.00
2023-02-06T00:33:47.689Z,536.00
2023-02-06T00:34:47.687Z,534.00
2023-02-06T00:35:47.654Z,532.00
2023-02-06T00:36:47.648Z,537.00
2023-02-06T00:37:47.637Z,529.00
2023-02-06T00:38:47.587Z,531.00
2023-02-06T00:39:48.110Z,526.00
2023-02-06T00:40:47.558Z,531.00
2023-02-06T00:41:47.544Z,524.00
2023-02-06T00:42:47.529Z,521.00
2023-02-06T00:43:47.537Z,519.00
2023-02-06T00:44:49.108Z,520.00
2023-02-06T00:45:47.492Z,520.00
2023-02-06T00:46:47.469Z,522.00
2023-02-06T00:47:47.435Z,515.00
2023-02-06T00:48:47.442Z,511.00
2023-02-06T00:49:47.403Z,518.00
2023-02-06T00:50:47.410Z,521.00
2023-02-06T00:51:47.385Z,515.00
2023-02-06T00:52:47.351Z,514.00
2023-02-06T00:53:49.065Z,513.00
2023-02-06T00:54:47.346Z,514.00
2023-02-06T00:55:47.315Z,514.00
2023-02-06T00:56:47.311Z,511.00
2023-02-06T00:57:47.290Z,512.00
2023-02-06T00:58:47.295Z,513.00
2023-02-06T00:59:47.263Z,512.00
2023-02-06T01:00:48.124Z,511.00
2023-02-06T01:01:47.660Z,517.00
2023-02-06T01:02:47.492Z,515.00
2023-02-06T01:03:48.092Z,518.00
2023-02-06T01:04:47.191Z,521.00
2023-02-06T01:05:47.164Z,520.00
2023-02-06T01:06:47.174Z,517.00
2023-02-06T01:07:47.190Z,515.00
2023-02-06T01:08:47.131Z,517.00
2023-02-06T01:09:47.124Z,509.00
2023-02-06T01:10:47.122Z,507.00
2023-02-06T01:11:47.143Z,513.00
2023-02-06T01:12:47.071Z,512.00
2023-02-06T01:13:47.073Z,509.00
2023-02-06T01:14:47.062Z,515.00
2023-02-06T01:15:48.421Z,515.00
2023-02-06T01:16:47.066Z,515.00
2023-02-06T01:17:47.032Z,517.00
2023-02-06T01:18:47.055Z,514.00
2023-02-06T01:19:47.013Z,508.00
2023-02-06T01:20:47.001Z,512.00
2023-02-06T01:21:47.163Z,515.00
2023-02-06T01:22:46.973Z,516.00
2023-02-06T01:23:47.044Z,513.00
2023-02-06T01:24:46.952Z,517.00
2023-02-06T01:25:46.951Z,519.00
2023-02-06T01:26:46.936Z,514.00
2023-02-06T01:27:46.980Z,522.00
2023-02-06T01:28:46.921Z,520.00
2023-02-06T01:29:46.881Z,516.00
2023-02-06T01:30:46.919Z,518.00
2023-02-06T01:31:46.919Z,516.00
2023-02-06T01:32:46.852Z,516.00
2023-02-06T01:33:46.860Z,512.00
2023-02-06T01:34:46.832Z,517.00
2023-02-06T01:35:46.818Z,516.00
2023-02-06T01:36:46.855Z,519.00
2023-02-06T01:37:46.774Z,516.00
2023-02-06T01:38:46.737Z,518.00
2023-02-06T01:39:46.723Z,514.00
2023-02-06T01:40:47.600Z,524.00
2023-02-06T01:41:46.702Z,513.00
2023-02-06T01:42:46.701Z,515.00
2023-02-06T01:43:46.666Z,511.00
2023-02-06T01:44:46.645Z,514.00
2023-02-06T01:45:46.609Z,514.00
2023-02-06T01:46:46.610Z,516.00
2023-02-06T01:47:46.618Z,515.00
2023-02-06T01:48:47.122Z,512.00
2023-02-06T01:49:46.551Z,514.00
2023-02-06T01:50:46.548Z,510.00
2023-02-06T01:51:46.530Z,513.00
2023-02-06T01:52:46.540Z,511.00
2023-02-06T01:53:46.498Z,518.00
2023-02-06T01:54:46.489Z,515.00
2023-02-06T01:55:46.491Z,516.00
2023-02-06T01:56:46.461Z,516.00
2023-02-06T01:57:46.482Z,518.00
2023-02-06T01:58:46.547Z,514.00
2023-02-06T01:59:46.425Z,511.00
2023-02-06T02:00:46.413Z,515.00
2023-02-06T02:01:46.457Z,520.00
2023-02-06T02:02:46.412Z,519.00
2023-02-06T02:03:46.353Z,513.00
2023-02-06T02:04:46.337Z,517.00
2023-02-06T02:05:46.318Z,519.00
2023-02-06T02:06:46.293Z,520.00
2023-02-06T02:07:46.325Z,527.00
2023-02-06T02:08:46.273Z,519.00
2023-02-06T02:09:46.276Z,518.00
2023-02-06T02:10:46.247Z,522.00
2023-02-06T02:11:46.246Z,520.00
2023-02-06T02:12:46.233Z,521.00
2023-02-06T02:13:46.213Z,522.00
2023-02-06T02:14:46.218Z,521.00
2023-02-06T02:15:46.174Z,524.00
2023-02-06T02:16:46.180Z,518.00
2023-02-06T02:17:46.176Z,517.00
2023-02-06T02:18:46.156Z,519.00
2023-02-06T02:19:46.149Z,523.00
2023-02-06T02:20:46.128Z,517.00
2023-02-06T02:21:46.120Z,521.00
2023-02-06T02:22:46.137Z,515.00
2023-02-06T02:23:46.101Z,516.00
2023-02-06T02:24:46.089Z,520.00
2023-02-06T02:25:46.065Z,521.00
2023-02-06T02:26:46.053Z,513.00
2023-02-06T02:27:46.094Z,513.00
2023-02-06T02:28:46.033Z,516.00
2023-02-06T02:29:46.005Z,518.00
2023-02-06T02:30:46.018Z,523.00
2023-02-06T02:31:46.033Z,520.00
2023-02-06T02:32:45.980Z,522.00
2023-02-06T02:33:45.984Z,523.00
2023-02-06T02:34:45.937Z,519.00
2023-02-06T02:35:45.947Z,519.00
2023-02-06T02:36:45.900Z,522.00
2023-02-06T02:37:45.884Z,521.00
2023-02-06T02:38:46.631Z,519.00
2023-02-06T02:39:45.887Z,520.00
2023-02-06T02:40:45.846Z,524.00
2023-02-06T02:41:45.859Z,522.00
2023-02-06T02:42:45.820Z,522.00
2023-02-06T02:43:45.789Z,518.00
2023-02-06T02:44:45.762Z,521.00
2023-02-06T02:45:45.791Z,519.00
2023-02-06T02:46:45.768Z,523.00
2023-02-06T02:47:45.780Z,517.00
2023-02-06T02:48:45.733Z,518.00
2023-02-06T02:49:45.689Z,520.00
2023-02-06T02:50:45.693Z,516.00
2023-02-06T02:51:45.669Z,517.00
2023-02-06T02:52:45.656Z,518.00
2023-02-06T02:53:45.641Z,518.00
2023-02-06T02:54:45.635Z,522.00
2023-02-06T02:55:45.641Z,521.00
2023-02-06T02:56:45.595Z,516.00
2023-02-06T02:57:45.597Z,517.00
2023-02-06T02:58:45.568Z,514.00
2023-02-06T02:59:45.586Z,516.00
2023-02-06T03:00:45.597Z,518.00
2023-02-06T03:01:45.568Z,513.00
2023-02-06T03:02:45.541Z,515.00
2023-02-06T03:03:45.568Z,516.00
2023-02-06T03:04:45.508Z,513.00
2023-02-06T03:05:45.513Z,513.00
2023-02-06T03:06:45.495Z,512.00
2023-02-06T03:07:45.491Z,513.00
2023-02-06T03:08:45.513Z,508.00
2023-02-06T03:09:46.013Z,514.00
2023-02-06T03:10:45.418Z,513.00
2023-02-06T03:11:45.430Z,514.00
2023-02-06T03:12:45.385Z,517.00
2023-02-06T03:13:45.395Z,515.00
2023-02-06T03:14:45.373Z,515.00
2023-02-06T03:15:45.383Z,515.00
2023-02-06T03:16:45.380Z,516.00
2023-02-06T03:17:45.329Z,518.00
2023-02-06T03:18:45.295Z,520.00
2023-02-06T03:19:45.298Z,518.00
2023-02-06T03:20:45.273Z,517.00
2023-02-06T03:21:45.271Z,519.00
2023-02-06T03:22:45.266Z,519.00
2023-02-06T03:23:45.290Z,526.00
2023-02-06T03:24:45.214Z,519.00
2023-02-06T03:25:45.195Z,516.00
2023-02-06T03:26:45.232Z,516.00
2023-02-06T03:27:45.217Z,517.00
2023-02-06T03:28:45.179Z,517.00
2023-02-06T03:29:45.187Z,518.00
2023-02-06T03:30:45.307Z,518.00
2023-02-06T03:31:45.171Z,518.00
2023-02-06T03:32:45.182Z,522.00
2023-02-06T03:33:45.255Z,523.00
2023-02-06T03:34:45.080Z,524.00
2023-02-06T03:35:45.087Z,517.00
2023-02-06T03:36:45.106Z,523.00
2023-02-06T03:37:45.049Z,521.00
2023-02-06T03:38:45.091Z,522.00
2023-02-06T03:39:45.024Z,525.00
2023-02-06T03:40:45.019Z,524.00
2023-02-06T03:41:45.000Z,528.00
2023-02-06T03:42:44.979Z,522.00
2023-02-06T03:43:45.006Z,524.00
2023-02-06T03:44:45.015Z,530.00
2023-02-06T03:45:44.984Z,525.00
2023-02-06T03:46:44.932Z,529.00
2023-02-06T03:47:44.927Z,522.00
2023-02-06T03:48:44.894Z,523.00
2023-02-06T03:49:45.179Z,523.00
2023-02-06T03:50:44.879Z,526.00
2023-02-06T03:51:44.872Z,521.00
2023-02-06T03:52:44.878Z,523.00
2023-02-06T03:53:44.841Z,530.00
2023-02-06T03:54:45.041Z,522.00
2023-02-06T03:55:44.813Z,522.00
2023-02-06T03:56:44.832Z,520.00
2023-02-06T03:57:44.801Z,517.00
2023-02-06T03:58:44.802Z,520.00
2023-02-06T03:59:44.780Z,520.00
2023-02-06T04:00:44.750Z,519.00
2023-02-06T04:01:44.753Z,517.00
2023-02-06T04:02:44.738Z,522.00
2023-02-06T04:03:44.727Z,518.00
2023-02-06T04:04:44.712Z,516.00
2023-02-06T04:05:44.748Z,517.00
2023-02-06T04:06:44.696Z,521.00
2023-02-06T04:07:44.691Z,524.00
2023-02-06T04:08:44.688Z,523.00
2023-02-06T04:09:44.701Z,522.00
2023-02-06T04:10:44.677Z,522.00
2023-02-06T04:11:44.657Z,527.00
2023-02-06T04:12:44.615Z,523.00
2023-02-06T04:13:44.629Z,520.00
2023-02-06T04:14:44.641Z,520.00
2023-02-06T04:15:44.573Z,524.00
2023-02-06T04:16:44.615Z,518.00
2023-02-06T04:17:58.941Z,520.00
2023-02-06T04:18:45.624Z,520.00
2023-02-06T04:19:44.640Z,521.00
2023-02-06T04:20:44.609Z,522.00
2023-02-06T04:21:44.642Z,520.00
2023-02-06T04:22:44.594Z,518.00
2023-02-06T04:23:44.587Z,524.00
2023-02-06T04:24:44.680Z,522.00
2023-02-06T04:25:44.564Z,517.00
2023-02-06T04:26:44.570Z,519.00
2023-02-06T04:27:44.579Z,520.00
2023-02-06T04:28:44.526Z,521.00
2023-02-06T04:29:44.530Z,523.00
2023-02-06T04:30:44.558Z,518.00
2023-02-06T04:31:44.501Z,516.00
2023-02-06T04:32:44.483Z,520.00
2023-02-06T04:33:44.476Z,518.00
2023-02-06T04:34:44.521Z,520.00
2023-02-06T04:35:44.460Z,510.00
2023-02-06T04:36:44.461Z,516.00
2023-02-06T04:37:44.459Z,517.00
2023-02-06T04:38:44.438Z,512.00
2023-02-06T04:39:44.494Z,513.00
2023-02-06T04:40:44.425Z,509.00
2023-02-06T04:41:44.399Z,507.00
2023-02-06T04:42:44.465Z,508.00
2023-02-06T04:43:44.412Z,508.00
2023-02-06T04:44:44.389Z,510.00
2023-02-06T04:45:44.385Z,515.00
2023-02-06T04:46:44.427Z,511.00
2023-02-06T04:47:44.375Z,509.00
2023-02-06T04:48:44.344Z,509.00
2023-02-06T04:49:44.345Z,511.00
2023-02-06T04:50:44.701Z,506.00
2023-02-06T04:51:44.331Z,511.00
2023-02-06T04:52:44.334Z,511.00
2023-02-06T04:53:44.330Z,512.00
2023-02-06T04:54:44.321Z,516.00
2023-02-06T04:55:44.320Z,515.00
2023-02-06T04:56:44.288Z,507.00
2023-02-06T04:57:44.292Z,511.00
2023-02-06T04:58:44.293Z,509.00
2023-02-06T04:59:44.275Z,510.00
2023-02-06T05:00:44.297Z,512.00
2023-02-06T05:01:44.319Z,510.00
2023-02-06T05:02:44.264Z,510.00
2023-02-06T05:03:44.231Z,509.00
2023-02-06T05:04:44.236Z,510.00
2023-02-06T05:05:44.214Z,506.00
2023-02-06T05:06:44.203Z,503.00
2023-02-06T05:07:44.192Z,507.00
2023-02-06T05:08:44.188Z,503.00
2023-02-06T05:09:44.203Z,506.00
2023-02-06T05:10:44.193Z,504.00
2023-02-06T05:11:44.173Z,507.00
2023-02-06T05:12:44.205Z,508.00
2023-02-06T05:13:44.158Z,510.00
2023-02-06T05:14:44.165Z,507.00
2023-02-06T05:15:44.149Z,507.00
2023-02-06T05:16:44.111Z,505.00
2023-02-06T05:17:44.105Z,514.00
2023-02-06T05:18:44.115Z,523.00
2023-02-06T05:19:44.109Z,510.00
2023-02-06T05:20:44.129Z,510.00
2023-02-06T05:21:44.105Z,513.00
2023-02-06T05:22:44.083Z,509.00
2023-02-06T05:23:44.050Z,505.00
2023-02-06T05:24:44.048Z,512.00
2023-02-06T05:25:44.064Z,501.00
2023-02-06T05:26:44.037Z,509.00
2023-02-06T05:27:44.022Z,500.00
2023-02-06T05:28:44.010Z,505.00
2023-02-06T05:29:43.987Z,510.00
2023-02-06T05:30:44.039Z,507.00
2023-02-06T05:31:44.054Z,505.00
2023-02-06T05:32:43.961Z,517.00
2023-02-06T05:33:43.964Z,503.00
2023-02-06T05:34:43.945Z,508.00
2023-02-06T05:35:43.955Z,501.00
2023-02-06T05:36:43.925Z,516.00
2023-02-06T05:37:43.946Z,512.00
2023-02-06T05:38:44.718Z,516.00
2023-02-06T05:39:43.917Z,511.00
2023-02-06T05:40:43.910Z,511.00
2023-02-06T05:41:43.883Z,521.00
2023-02-06T05:42:43.888Z,510.00
2023-02-06T05:43:43.872Z,511.00
2023-02-06T05:44:43.869Z,506.00
2023-02-06T05:45:43.876Z,513.00
2023-02-06T05:46:43.845Z,510.00
2023-02-06T05:47:43.821Z,509.00
2023-02-06T05:48:43.845Z,511.00
2023-02-06T05:49:43.810Z,505.00
2023-02-06T05:50:43.806Z,520.00
2023-02-06T05:51:43.797Z,514.00
2023-02-06T05:52:43.778Z,509.00
2023-02-06T05:53:43.791Z,514.00
2023-02-06T05:54:43.768Z,506.00
2023-02-06T05:55:43.767Z,507.00
2023-02-06T05:56:43.752Z,503.00
2023-02-06T05:57:43.740Z,502.00
2023-02-06T05:58:43.731Z,500.00
2023-02-06T05:59:43.722Z,506.00
2023-02-06T06:00:43.709Z,509.00
2023-02-06T06:01:43.714Z,506.00
2023-02-06T06:02:43.713Z,508.00
2023-02-06T06:03:43.711Z,512.00
2023-02-06T06:04:44.242Z,517.00
2023-02-06T06:05:43.676Z,505.00
2023-02-06T06:06:43.712Z,507.00
2023-02-06T06:07:43.676Z,503.00
2023-02-06T06:08:43.655Z,505.00
2023-02-06T06:09:43.663Z,501.00
2023-02-06T06:10:43.642Z,504.00
2023-02-06T06:11:43.652Z,502.00
2023-02-06T06:12:43.618Z,501.00
2023-02-06T06:13:43.607Z,502.00
2023-02-06T06:14:43.625Z,507.00
2023-02-06T06:15:43.645Z,510.00
2023-02-06T06:16:43.600Z,510.00
2023-02-06T06:17:43.570Z,506.00
2023-02-06T06:18:43.576Z,506.00
2023-02-06T06:19:43.584Z,504.00
2023-02-06T06:20:43.592Z,509.00
2023-02-06T06:21:43.570Z,504.00
2023-02-06T06:22:43.549Z,508.00
2023-02-06T06:23:43.545Z,510.00
2023-02-06T06:24:44.212Z,522.00
2023-02-06T06:25:43.642Z,515.00
2023-02-06T06:26:43.637Z,509.00
2023-02-06T06:27:43.701Z,516.00
2023-02-06T06:28:43.499Z,515.00
2023-02-06T06:30:43.618Z,502.00
2023-02-06T06:31:43.470Z,400.00
2023-02-06T06:32:43.441Z,400.00
2023-02-06T06:33:43.578Z,400.00
2023-02-06T06:34:43.481Z,400.00
2023-02-06T06:35:43.458Z,400.00
2023-02-06T06:36:43.526Z,400.00
2023-02-06T06:37:43.413Z,400.00
2023-02-06T06:38:43.437Z,400.00
2023-02-06T06:39:43.462Z,400.00
2023-02-06T06:40:43.481Z,400.00
2023-02-06T06:41:43.483Z,400.00
2023-02-06T06:42:43.499Z,400.00
2023-02-06T06:43:43.503Z,400.00
2023-02-06T06:44:43.506Z,400.00
2023-02-06T06:45:43.564Z,400.00
2023-02-06T06:46:44.307Z,400.00
2023-02-06T06:47:43.559Z,400.00
2023-02-06T06:48:43.692Z,400.00
2023-02-06T06:49:46.274Z,452.00
2023-02-06T06:50:43.597Z,500.00
2023-02-06T06:51:44.247Z,510.00
2023-02-06T06:52:43.630Z,494.00
2023-02-06T06:53:44.411Z,500.00
2023-02-06T06:54:43.849Z,500.00
2023-02-06T06:55:43.712Z,499.00
2023-02-06T06:56:43.698Z,502.00
2023-02-06T06:57:43.694Z,502.00
2023-02-06T06:58:44.646Z,502.00
2023-02-06T06:59:44.222Z,492.00
2023-02-06T07:00:44.257Z,484.00
2023-02-06T07:01:43.786Z,479.00
2023-02-06T07:02:44.800Z,462.00
2023-02-06T07:03:43.692Z,500.00
2023-02-06T07:04:43.730Z,507.00
2023-02-06T07:05:43.737Z,504.00
2023-02-06T07:06:43.818Z,519.00
2023-02-06T07:07:43.735Z,527.00
2023-02-06T07:08:43.693Z,510.00
2023-02-06T07:09:44.294Z,503.00
2023-02-06T07:10:43.878Z,509.00
2023-02-06T07:11:43.722Z,518.00
2023-02-06T07:12:44.293Z,534.00
2023-02-06T07:13:43.759Z,529.00
2023-02-06T07:14:43.754Z,512.00
2023-02-06T07:15:43.738Z,513.00
2023-02-06T07:16:43.899Z,522.00
2023-02-06T07:17:43.828Z,534.00
2023-02-06T07:18:43.732Z,543.00
2023-02-06T07:19:43.832Z,568.00
2023-02-06T07:20:43.779Z,605.00
2023-02-06T07:21:43.743Z,580.00
2023-02-06T07:22:43.792Z,537.00
2023-02-06T07:23:43.742Z,518.00
2023-02-06T07:24:44.749Z,502.00
2023-02-06T07:25:46.763Z,505.00
2023-02-06T07:26:44.743Z,500.00
2023-02-06T07:27:43.805Z,502.00
2023-02-06T07:28:51.001Z,500.00
2023-02-06T07:29:43.784Z,500.00
2023-02-06T07:30:44.776Z,501.00
2023-02-06T07:31:43.794Z,507.00
2023-02-06T07:32:43.828Z,493.00
2023-02-06T07:33:43.984Z,479.00
2023-02-06T07:34:43.768Z,500.00
2023-02-06T07:35:43.848Z,507.00
2023-02-06T07:36:43.770Z,500.00
2023-02-06T07:37:43.821Z,517.00
2023-02-06T07:38:43.791Z,502.00
2023-02-06T07:39:43.759Z,500.00
2023-02-06T07:40:45.383Z,500.00
2023-02-06T07:41:43.911Z,502.00
2023-02-06T07:42:43.824Z,499.00
2023-02-06T07:43:44.027Z,506.00
2023-02-06T07:44:43.808Z,502.00
2023-02-06T07:45:43.806Z,509.00
2023-02-06T07:46:43.772Z,502.00
2023-02-06T07:47:43.799Z,514.00
2023-02-06T07:48:43.839Z,477.00
2023-02-06T07:49:43.849Z,400.00
2023-02-06T07:50:43.974Z,400.00
2023-02-06T07:51:43.812Z,400.00
2023-02-06T07:52:43.857Z,400.00
2023-02-06T07:53:43.829Z,400.00
2023-02-06T07:54:43.837Z,408.00
2023-02-06T07:55:44.764Z,456.00
2023-02-06T07:56:43.851Z,514.00
2023-02-06T07:57:43.999Z,610.00
2023-02-06T07:58:43.891Z,781.00
2023-02-06T07:59:43.891Z,796.00
2023-02-06T08:00:45.865Z,797.00
2023-02-06T08:01:44.070Z,757.00
2023-02-06T08:02:43.917Z,748.00
2023-02-06T08:03:44.777Z,1090.00
2023-02-06T08:04:44.076Z,1160.00
2023-02-06T08:05:44.821Z,1379.00
2023-02-06T08:06:43.968Z,1611.00
2023-02-06T08:07:44.206Z,1615.00
2023-02-06T08:08:44.320Z,1641.00
2023-02-06T08:09:43.992Z,1725.00
2023-02-06T08:10:44.782Z,1868.00
2023-02-06T08:11:44.049Z,2087.00
2023-02-06T08:12:44.011Z,1630.00
2023-02-06T08:13:44.087Z,1703.00
2023-02-06T08:14:44.094Z,1837.00
2023-02-06T08:15:44.675Z,2033.00
2023-02-06T08:16:45.231Z,2301.00
2023-02-06T08:17:44.090Z,2385.00
2023-02-06T08:18:44.075Z,2397.00
2023-02-06T08:19:44.055Z,2416.00
2023-02-06T08:20:44.062Z,2382.00
2023-02-06T08:21:44.217Z,2379.00
2023-02-06T08:22:44.093Z,2408.00
2023-02-06T08:23:44.056Z,2383.00
2023-02-06T08:24:44.850Z,2385.00
2023-02-06T08:25:44.281Z,2275.00
2023-02-06T08:26:44.127Z,1767.00
2023-02-06T08:27:44.110Z,1097.00
2023-02-06T08:28:44.215Z,766.00
2023-02-06T08:29:44.084Z,818.00
2023-02-06T08:30:44.172Z,1335.00
2023-02-06T08:31:44.142Z,1496.00
2023-02-06T08:32:44.219Z,1514.00
2023-02-06T08:33:44.081Z,1650.00
2023-02-06T08:34:44.587Z,1774.00
2023-02-06T08:35:44.082Z,1791.00
2023-02-06T08:36:44.191Z,1936.00
2023-02-06T08:37:44.081Z,2020.00
2023-02-06T08:38:44.325Z,2114.00
2023-02-06T08:39:44.094Z,2140.00
2023-02-06T08:40:44.119Z,2208.00
2023-02-06T08:41:44.085Z,2175.00
2023-02-06T08:42:44.815Z,2248.00
2023-02-06T08:43:44.373Z,2303.00
2023-02-06T08:44:44.807Z,2298.00
2023-02-06T08:45:44.832Z,2360.00
2023-02-06T08:46:44.761Z,2368.00
2023-02-06T08:47:44.132Z,2420.00
2023-02-06T08:48:44.060Z,2458.00
2023-02-06T08:49:44.777Z,2516.00
2023-02-06T08:50:44.073Z,2508.00
2023-02-06T08:51:44.790Z,2572.00
2023-02-06T08:52:44.035Z,2523.00
2023-02-06T08:53:44.066Z,2483.00
2023-02-06T08:54:44.042Z,2488.00
2023-02-06T08:55:44.004Z,2474.00
2023-02-06T08:56:43.983Z,2439.00
2023-02-06T08:57:44.089Z,2421.00
2023-02-06T08:58:43.942Z,2424.00
2023-02-06T08:59:44.329Z,3445.00
2023-02-06T09:00:44.027Z,3188.00
2023-02-06T09:01:43.993Z,2984.00
2023-02-06T09:02:44.005Z,2667.00
2023-02-06T09:03:43.888Z,2532.00
2023-02-06T09:04:43.903Z,2555.00
2023-02-06T09:05:43.963Z,2489.00
2023-02-06T09:06:43.924Z,2489.00
2023-02-06T09:07:44.788Z,2447.00
2023-02-06T09:08:43.829Z,2423.00
2023-02-06T09:09:43.838Z,2418.00
2023-02-06T09:10:43.817Z,2450.00
2023-02-06T09:11:43.800Z,2451.00
2023-02-06T09:12:43.797Z,2444.00
2023-02-06T09:13:43.772Z,2428.00
2023-02-06T09:14:43.760Z,2376.00
2023-02-06T09:15:43.847Z,2393.00
2023-02-06T09:16:43.953Z,2365.00
2023-02-06T09:17:44.291Z,2360.00
2023-02-06T09:18:43.699Z,2338.00
2023-02-06T09:19:43.692Z,2341.00
2023-02-06T09:20:43.687Z,2333.00
2023-02-06T09:21:43.646Z,2369.00
2023-02-06T09:22:43.879Z,2363.00
2023-02-06T09:23:43.627Z,2344.00
2023-02-06T09:24:43.730Z,2347.00
2023-02-06T09:25:43.572Z,2356.00
2023-02-06T09:26:58.598Z,2342.00
2023-02-06T09:27:44.582Z,2344.00
2023-02-06T09:29:43.862Z,2345.00
2023-02-06T09:30:43.845Z,2311.00
2023-02-06T09:31:43.857Z,2181.00
2023-02-06T09:32:43.862Z,2193.00
2023-02-06T09:33:43.792Z,1968.00
2023-02-06T09:34:43.789Z,1888.00
2023-02-06T09:35:43.751Z,1825.00
2023-02-06T09:36:43.707Z,1844.00
2023-02-06T09:37:43.999Z,1928.00
2023-02-06T09:38:43.862Z,2014.00
2023-02-06T09:39:43.755Z,1770.00
2023-02-06T09:40:43.829Z,1819.00
2023-02-06T09:41:43.668Z,1724.00
2023-02-06T09:42:43.670Z,1671.00
2023-02-06T09:43:43.748Z,1644.00
2023-02-06T09:44:43.686Z,1593.00
2023-02-06T09:45:43.643Z,1527.00
2023-02-06T09:46:43.682Z,1541.00
2023-02-06T09:47:45.174Z,1518.00
2023-02-06T09:48:43.680Z,1594.00
2023-02-06T09:49:43.634Z,1619.00
2023-02-06T09:50:43.649Z,1578.00
2023-02-06T09:51:43.651Z,1552.00
2023-02-06T09:52:43.644Z,1394.00
2023-02-06T09:53:43.603Z,1469.00
2023-02-06T09:54:43.585Z,1266.00
2023-02-06T09:55:43.592Z,1291.00
2023-02-06T09:56:43.612Z,1358.00
2023-02-06T09:58:43.646Z,1275.00
2023-02-06T10:01:43.852Z,1481.00
2023-02-06T10:02:43.559Z,1463.00
2023-02-06T10:03:43.642Z,1582.00
2023-02-06T10:04:43.534Z,1659.00
2023-02-06T10:05:43.518Z,1674.00
2023-02-06T10:06:43.604Z,1624.00
2023-02-06T10:07:43.505Z,1674.00
2023-02-06T12:05:43.742Z,1864.00
2023-02-06T12:06:43.820Z,1844.00
2023-02-06T12:07:43.823Z,1891.00
2023-02-06T12:08:43.791Z,1916.00
2023-02-06T12:09:43.727Z,1954.00
2023-02-06T12:10:43.769Z,2042.00
2023-02-06T12:11:43.739Z,2113.00
2023-02-06T12:12:43.758Z,2199.00
2023-02-06T12:13:43.795Z,2257.00
2023-02-06T12:14:43.826Z,2351.00
2023-02-06T12:15:46.988Z,2403.00
2023-02-06T12:16:43.809Z,2406.00
2023-02-06T12:17:43.760Z,2429.00
2023-02-06T12:18:43.721Z,2485.00
2023-02-06T12:19:43.735Z,2620.00
2023-02-06T12:20:43.723Z,2785.00
2023-02-06T12:21:43.824Z,2863.00
2023-02-06T12:22:43.739Z,2939.00
2023-02-06T12:23:43.718Z,3012.00
2023-02-06T12:24:43.728Z,3101.00
2023-02-06T12:25:43.796Z,3215.00
2023-02-06T12:26:43.782Z,3278.00
2023-02-06T12:27:43.758Z,3372.00
2023-02-06T12:28:45.298Z,3444.00
2023-02-06T12:29:43.686Z,3498.00
2023-02-06T12:30:44.789Z,3522.00
2023-02-06T12:31:43.738Z,3569.00
2023-02-06T12:32:43.779Z,3594.00
2023-02-06T12:33:43.747Z,3642.00
2023-02-06T12:34:43.648Z,3665.00
2023-02-06T12:35:43.658Z,3688.00
2023-02-06T12:36:43.735Z,3733.00
2023-02-06T12:37:43.670Z,3790.00
2023-02-06T12:38:43.645Z,3811.00
2023-02-06T12:39:43.646Z,3867.00
2023-02-06T12:40:43.674Z,3869.00
2023-02-06T12:41:43.797Z,3873.00
2023-02-06T12:42:43.722Z,3889.00
2023-02-06T12:43:43.745Z,3922.00
2023-02-06T12:44:43.652Z,3982.00
2023-02-06T12:45:43.613Z,3991.00
2023-02-06T12:46:43.626Z,4014.00
2023-02-06T12:47:44.346Z,4029.00
2023-02-06T12:48:43.556Z,4030.00
2023-02-06T12:49:44.358Z,4033.00
2023-02-06T12:50:43.556Z,4043.00
2023-02-06T12:51:43.546Z,4056.00
2023-02-06T12:52:43.585Z,3990.00
2023-02-06T12:53:43.531Z,4003.00
2023-02-06T12:54:43.532Z,4006.00
2023-02-06T12:55:43.502Z,4019.00
2023-02-06T12:56:43.513Z,4045.00
2023-02-06T12:57:43.558Z,4034.00
2023-02-06T12:58:43.618Z,4066.00
2023-02-06T12:59:56.659Z,4101.00
2023-02-06T13:00:44.489Z,4103.00
2023-02-06T13:01:43.501Z,4109.00
2023-02-06T13:02:43.527Z,4122.00
2023-02-06T13:03:43.452Z,4145.00
2023-02-06T13:04:43.494Z,4187.00
2023-02-06T13:05:43.508Z,4191.00
2023-02-06T13:06:43.449Z,4194.00
2023-02-06T13:07:49.314Z,4215.00
2023-02-06T13:08:44.414Z,4216.00
2023-02-06T13:09:43.426Z,4218.00
2023-02-06T13:10:44.352Z,4226.00
2023-02-06T13:11:44.358Z,4230.00
2023-02-06T13:12:43.448Z,4246.00
2023-02-06T13:13:43.416Z,4245.00
2023-02-06T13:14:43.362Z,4259.00
2023-02-06T13:15:43.387Z,4243.00
2023-02-06T13:16:43.334Z,4258.00
2023-02-06T13:17:43.409Z,4257.00
2023-02-06T13:18:43.342Z,4266.00
2023-02-06T13:19:43.362Z,4254.00
2023-02-06T13:20:43.298Z,4268.00
2023-02-06T13:21:43.408Z,4263.00
2023-02-06T13:23:43.312Z,4260.00
2023-02-06T13:24:43.335Z,4252.00
2023-02-06T13:25:43.487Z,4254.00
2023-02-06T13:26:43.901Z,4249.00
2023-02-06T13:27:43.415Z,4250.00
2023-02-06T13:28:43.430Z,4252.00
2023-02-06T13:29:43.418Z,4255.00
2023-02-06T13:30:43.485Z,4262.00
2023-02-06T13:31:43.355Z,4276.00
2023-02-06T13:32:43.382Z,4270.00
2023-02-06T13:33:43.340Z,4266.00
2023-02-06T13:34:43.963Z,4269.00
2023-02-06T13:35:43.343Z,4250.00
2023-02-06T13:36:43.397Z,4261.00
2023-02-06T13:37:43.313Z,4252.00
2023-02-06T13:38:43.306Z,4247.00
2023-02-06T13:39:43.358Z,4242.00
2023-02-06T13:40:43.353Z,4219.00
2023-02-06T13:41:43.878Z,4243.00
2023-02-06T13:42:43.396Z,4243.00
2023-02-06T13:43:43.411Z,4245.00
2023-02-06T13:44:43.350Z,4245.00
2023-02-06T13:46:43.901Z,4239.00
2023-02-06T13:47:43.323Z,4241.00
2023-02-06T13:48:46.353Z,4231.00
2023-02-06T13:49:43.312Z,4236.00
2023-02-06T13:50:43.388Z,4223.00
2023-02-06T13:51:43.910Z,4234.00
2023-02-06T13:52:43.463Z,4225.00
2023-02-06T13:53:43.530Z,4188.00
2023-02-06T13:54:43.478Z,4208.00
2023-02-06T13:55:43.477Z,4182.00
2023-02-06T13:56:43.903Z,4194.00
2023-02-06T13:57:43.432Z,4186.00
2023-02-06T13:58:43.387Z,4187.00
2023-02-06T13:59:43.224Z,4188.00
2023-02-06T14:01:43.229Z,4143.00
2023-02-06T14:02:43.186Z,4156.00
2023-02-06T14:03:43.114Z,4153.00
2023-02-06T14:04:43.131Z,4159.00
2023-02-06T14:05:43.176Z,4146.00
2023-02-06T14:06:43.136Z,4156.00
2023-02-06T14:07:43.097Z,4136.00
2023-02-06T14:08:43.079Z,4147.00
2023-02-06T14:09:43.980Z,4132.00
2023-02-06T14:11:43.060Z,4137.00
2023-02-06T14:12:43.032Z,4120.00
2023-02-06T14:13:43.042Z,4133.00
2023-02-06T14:14:43.026Z,4143.00
2023-02-06T14:15:43.065Z,4108.00
2023-02-06T14:16:42.996Z,4100.00
2023-02-06T14:17:42.973Z,4131.00
2023-02-06T14:18:42.968Z,4110.00
2023-02-06T14:19:43.013Z,4116.00
2023-02-06T14:20:42.982Z,4101.00
2023-02-06T14:21:42.935Z,4107.00
2023-02-06T14:22:42.939Z,4080.00
2023-02-06T14:23:44.684Z,4095.00
2023-02-06T14:25:42.940Z,4084.00
2023-02-06T14:26:42.947Z,4078.00
2023-02-06T14:27:42.952Z,4078.00